sensor_id;sensor_type;location;lat;lon;timestamp;pressure;altitude;pressure_sealevel;temperature;humidity
77240;BME280;66258;53.170;-2.240;2023-02-25T00:00:32;100502.09;;;12.25;61.29
77240;BME280;66258;53.170;-2.240;2023-02-25T00:03:00;100502.44;;;12.22;61.20
77240;BME280;66258;53.170;-2.240;2023-02-25T00:05:27;100507.69;;;12.15;60.76
77240;BME280;66258;53.170;-2.240;2023-02-25T00:07:57;100504.34;;;12.05;60.65
77240;BME280;66258;53.170;-2.240;2023-02-25T00:10:24;100499.56;;;12.07;60.68
77240;BME280;66258;53.170;-2.240;2023-02-25T00:12:51;100503.31;;;11.98;60.95
77240;BME280;66258;53.170;-2.240;2023-02-25T00:15:18;100503.47;;;11.96;60.78
77240;BME280;66258;53.170;-2.240;2023-02-25T00:17:45;100507.06;;;11.81;61.34
77240;BME280;66258;53.170;-2.240;2023-02-25T00:20:14;100508.72;;;11.74;61.88
77240;BME280;66258;53.170;-2.240;2023-02-25T00:22:41;100509.38;;;11.67;62.83
77240;BME280;66258;53.170;-2.240;2023-02-25T00:25:08;100504.19;;;11.82;63.35
77240;BME280;66258;53.170;-2.240;2023-02-25T00:27:35;100499.59;;;11.83;63.74
77240;BME280;66258;53.170;-2.240;2023-02-25T00:30:04;100503.28;;;11.74;64.28
77240;BME280;66258;53.170;-2.240;2023-02-25T00:32:31;100505.00;;;11.99;64.34
77240;BME280;66258;53.170;-2.240;2023-02-25T00:34:58;100503.13;;;11.99;63.95
77240;BME280;66258;53.170;-2.240;2023-02-25T00:37:27;100505.16;;;12.05;63.86
77240;BME280;66258;53.170;-2.240;2023-02-25T00:39:54;100507.34;;;12.18;63.32
77240;BME280;66258;53.170;-2.240;2023-02-25T00:42:20;100510.41;;;12.23;62.61
77240;BME280;66258;53.170;-2.240;2023-02-25T00:44:49;100514.47;;;12.19;61.86
77240;BME280;66258;53.170;-2.240;2023-02-25T00:47:17;100511.75;;;12.19;62.07
77240;BME280;66258;53.170;-2.240;2023-02-25T00:49:45;100511.59;;;12.21;62.47
77240;BME280;66258;53.170;-2.240;2023-02-25T00:52:13;100510.03;;;12.26;62.63
77240;BME280;66258;53.170;-2.240;2023-02-25T00:54:42;100504.75;;;12.33;62.61
77240;BME280;66258;53.170;-2.240;2023-02-25T00:57:09;100511.38;;;12.30;62.82
77240;BME280;66258;53.170;-2.240;2023-02-25T00:59:36;100506.97;;;12.29;63.04
77240;BME280;66258;53.170;-2.240;2023-02-25T01:02:03;100508.16;;;12.43;62.57
77240;BME280;66258;53.170;-2.240;2023-02-25T01:04:30;100505.44;;;12.43;62.48
77240;BME280;66258;53.170;-2.240;2023-02-25T01:06:57;100500.00;;;12.35;62.61
77240;BME280;66258;53.170;-2.240;2023-02-25T01:09:24;100503.09;;;12.24;62.70
77240;BME280;66258;53.170;-2.240;2023-02-25T01:11:52;100498.41;;;12.01;62.95
77240;BME280;66258;53.170;-2.240;2023-02-25T01:14:22;100508.22;;;11.86;63.44
77240;BME280;66258;53.170;-2.240;2023-02-25T01:16:50;100505.53;;;11.78;63.77
77240;BME280;66258;53.170;-2.240;2023-02-25T01:19:19;100499.22;;;11.61;64.81
77240;BME280;66258;53.170;-2.240;2023-02-25T01:21:47;100511.25;;;11.59;65.23
77240;BME280;66258;53.170;-2.240;2023-02-25T01:24:17;100506.50;;;11.69;64.88
77240;BME280;66258;53.170;-2.240;2023-02-25T01:26:44;100503.97;;;11.76;64.75
77240;BME280;66258;53.170;-2.240;2023-02-25T01:29:14;100502.13;;;11.76;64.50
77240;BME280;66258;53.170;-2.240;2023-02-25T01:31:42;100505.47;;;11.70;64.23
77240;BME280;66258;53.170;-2.240;2023-02-25T01:34:13;100502.78;;;11.62;64.45
77240;BME280;66258;53.170;-2.240;2023-02-25T01:36:41;100501.75;;;11.55;64.32
77240;BME280;66258;53.170;-2.240;2023-02-25T01:39:08;100501.75;;;11.47;64.47
77240;BME280;66258;53.170;-2.240;2023-02-25T01:41:36;100501.41;;;11.42;65.09
77240;BME280;66258;53.170;-2.240;2023-02-25T01:44:06;100501.22;;;11.35;65.33
77240;BME280;66258;53.170;-2.240;2023-02-25T01:46:35;100496.78;;;11.26;65.40
77240;BME280;66258;53.170;-2.240;2023-02-25T01:49:04;100498.16;;;11.30;65.66
77240;BME280;66258;53.170;-2.240;2023-02-25T01:51:33;100499.50;;;11.26;65.81
77240;BME280;66258;53.170;-2.240;2023-02-25T01:54:00;100514.44;;;11.22;65.65
77240;BME280;66258;53.170;-2.240;2023-02-25T01:56:29;100507.97;;;11.15;65.75
77240;BME280;66258;53.170;-2.240;2023-02-25T01:58:57;100514.75;;;11.19;65.70
77240;BME280;66258;53.170;-2.240;2023-02-25T02:01:27;100517.47;;;11.19;66.01
77240;BME280;66258;53.170;-2.240;2023-02-25T02:04:00;100518.81;;;11.15;66.67
77240;BME280;66258;53.170;-2.240;2023-02-25T02:06:31;100512.72;;;11.29;66.75
77240;BME280;66258;53.170;-2.240;2023-02-25T02:09:02;100513.44;;;11.39;66.63
77240;BME280;66258;53.170;-2.240;2023-02-25T02:11:30;100509.34;;;11.43;66.18
77240;BME280;66258;53.170;-2.240;2023-02-25T02:13:58;100518.88;;;11.39;65.80
77240;BME280;66258;53.170;-2.240;2023-02-25T02:16:39;100519.00;;;11.29;65.56
77240;BME280;66258;53.170;-2.240;2023-02-25T02:19:24;100506.97;;;11.16;65.43
77240;BME280;66258;53.170;-2.240;2023-02-25T02:21:59;100511.31;;;11.00;65.96
77240;BME280;66258;53.170;-2.240;2023-02-25T02:28:04;100512.09;;;10.77;66.71
77240;BME280;66258;53.170;-2.240;2023-02-25T02:30:45;100511.81;;;10.54;67.39
77240;BME280;66258;53.170;-2.240;2023-02-25T02:33:24;100514.78;;;10.43;67.89
77240;BME280;66258;53.170;-2.240;2023-02-25T02:35:58;100518.88;;;10.47;67.84
77240;BME280;66258;53.170;-2.240;2023-02-25T02:38:34;100523.91;;;10.42;68.03
77240;BME280;66258;53.170;-2.240;2023-02-25T02:41:09;100514.28;;;10.39;68.08
77240;BME280;66258;53.170;-2.240;2023-02-25T02:43:42;100529.91;;;10.27;68.25
77240;BME280;66258;53.170;-2.240;2023-02-25T02:46:16;100519.56;;;10.23;68.17
77240;BME280;66258;53.170;-2.240;2023-02-25T02:48:51;100518.13;;;10.11;68.52
77240;BME280;66258;53.170;-2.240;2023-02-25T02:51:23;100518.28;;;10.09;68.33
77240;BME280;66258;53.170;-2.240;2023-02-25T02:53:54;100518.06;;;10.03;68.55
77240;BME280;66258;53.170;-2.240;2023-02-25T02:56:24;100528.91;;;9.85;68.99
77240;BME280;66258;53.170;-2.240;2023-02-25T02:58:56;100531.72;;;9.75;68.96
77240;BME280;66258;53.170;-2.240;2023-02-25T03:01:27;100535.19;;;9.68;69.24
77240;BME280;66258;53.170;-2.240;2023-02-25T03:03:59;100530.16;;;9.73;69.92
77240;BME280;66258;53.170;-2.240;2023-02-25T03:06:32;100529.88;;;9.76;70.35
77240;BME280;66258;53.170;-2.240;2023-02-25T03:09:03;100533.06;;;9.79;71.02
77240;BME280;66258;53.170;-2.240;2023-02-25T03:11:30;100537.25;;;9.91;71.75
77240;BME280;66258;53.170;-2.240;2023-02-25T03:13:57;100540.00;;;9.99;72.18
77240;BME280;66258;53.170;-2.240;2023-02-25T03:16:28;100533.66;;;10.09;72.16
77240;BME280;66258;53.170;-2.240;2023-02-25T03:19:04;100541.69;;;10.18;72.99
77240;BME280;66258;53.170;-2.240;2023-02-25T03:21:37;100539.66;;;10.38;73.44
77240;BME280;66258;53.170;-2.240;2023-02-25T03:24:12;100540.84;;;10.44;73.14
77240;BME280;66258;53.170;-2.240;2023-02-25T03:26:41;100552.34;;;10.46;73.81
77240;BME280;66258;53.170;-2.240;2023-02-25T03:29:14;100548.25;;;10.42;73.96
77240;BME280;66258;53.170;-2.240;2023-02-25T03:31:45;100549.25;;;10.32;74.20
77240;BME280;66258;53.170;-2.240;2023-02-25T03:34:16;100559.38;;;10.30;74.24
77240;BME280;66258;53.170;-2.240;2023-02-25T03:36:47;100555.19;;;10.36;74.03
77240;BME280;66258;53.170;-2.240;2023-02-25T03:39:17;100555.88;;;10.38;73.51
77240;BME280;66258;53.170;-2.240;2023-02-25T03:41:49;100550.13;;;10.15;73.61
77240;BME280;66258;53.170;-2.240;2023-02-25T03:44:25;100549.09;;;10.16;73.46
77240;BME280;66258;53.170;-2.240;2023-02-25T03:46:55;100546.84;;;10.29;71.85
77240;BME280;66258;53.170;-2.240;2023-02-25T03:49:27;100549.34;;;10.05;71.34
77240;BME280;66258;53.170;-2.240;2023-02-25T03:51:58;100545.97;;;9.85;71.78
77240;BME280;66258;53.170;-2.240;2023-02-25T03:54:28;100554.13;;;9.68;72.03
77240;BME280;66258;53.170;-2.240;2023-02-25T03:56:55;100558.38;;;9.70;71.71
77240;BME280;66258;53.170;-2.240;2023-02-25T03:59:22;100547.41;;;9.72;71.35
77240;BME280;66258;53.170;-2.240;2023-02-25T04:01:51;100557.97;;;9.65;72.15
77240;BME280;66258;53.170;-2.240;2023-02-25T04:04:20;100564.00;;;9.77;71.93
77240;BME280;66258;53.170;-2.240;2023-02-25T04:06:49;100562.28;;;9.58;72.71
77240;BME280;66258;53.170;-2.240;2023-02-25T04:09:15;100558.66;;;9.67;72.38
77240;BME280;66258;53.170;-2.240;2023-02-25T04:11:43;100554.88;;;9.78;72.73
77240;BME280;66258;53.170;-2.240;2023-02-25T04:14:09;100549.44;;;9.78;73.17
77240;BME280;66258;53.170;-2.240;2023-02-25T04:16:36;100552.84;;;9.80;73.47
77240;BME280;66258;53.170;-2.240;2023-02-25T04:19:03;100557.56;;;9.78;73.66
77240;BME280;66258;53.170;-2.240;2023-02-25T04:21:32;100558.22;;;9.72;73.90
77240;BME280;66258;53.170;-2.240;2023-02-25T04:24:02;100566.63;;;9.69;73.98
77240;BME280;66258;53.170;-2.240;2023-02-25T04:26:29;100567.72;;;9.76;73.30
77240;BME280;66258;53.170;-2.240;2023-02-25T04:28:56;100575.44;;;9.71;73.81
77240;BME280;66258;53.170;-2.240;2023-02-25T04:31:23;100574.91;;;9.67;74.14
77240;BME280;66258;53.170;-2.240;2023-02-25T04:33:51;100562.97;;;9.60;73.92
77240;BME280;66258;53.170;-2.240;2023-02-25T04:36:23;100563.06;;;9.50;74.19
77240;BME280;66258;53.170;-2.240;2023-02-25T04:38:52;100569.09;;;9.44;74.30
77240;BME280;66258;53.170;-2.240;2023-02-25T04:41:21;100575.03;;;9.48;74.25
77240;BME280;66258;53.170;-2.240;2023-02-25T04:43:48;100571.41;;;9.39;73.90
77240;BME280;66258;53.170;-2.240;2023-02-25T04:46:15;100570.03;;;9.35;74.40
77240;BME280;66258;53.170;-2.240;2023-02-25T04:48:42;100569.16;;;9.35;73.92
77240;BME280;66258;53.170;-2.240;2023-02-25T04:51:09;100567.91;;;9.29;74.25
77240;BME280;66258;53.170;-2.240;2023-02-25T04:53:36;100573.53;;;9.18;73.28
77240;BME280;66258;53.170;-2.240;2023-02-25T04:56:04;100573.31;;;9.11;73.33
77240;BME280;66258;53.170;-2.240;2023-02-25T04:58:34;100579.19;;;8.97;73.49
77240;BME280;66258;53.170;-2.240;2023-02-25T05:01:02;100579.69;;;8.83;73.62
77240;BME280;66258;53.170;-2.240;2023-02-25T05:03:29;100584.97;;;8.75;73.38
77240;BME280;66258;53.170;-2.240;2023-02-25T05:05:57;100577.13;;;8.81;73.15
77240;BME280;66258;53.170;-2.240;2023-02-25T05:08:24;100573.25;;;8.93;73.00
77240;BME280;66258;53.170;-2.240;2023-02-25T05:10:52;100577.97;;;8.91;74.09
77240;BME280;66258;53.170;-2.240;2023-02-25T05:13:19;100574.06;;;8.94;74.97
77240;BME280;66258;53.170;-2.240;2023-02-25T05:15:48;100585.66;;;8.86;76.17
77240;BME280;66258;53.170;-2.240;2023-02-25T05:18:15;100576.53;;;8.87;77.07
77240;BME280;66258;53.170;-2.240;2023-02-25T05:20:44;100587.19;;;8.89;77.14
77240;BME280;66258;53.170;-2.240;2023-02-25T05:23:12;100593.31;;;8.91;77.15
77240;BME280;66258;53.170;-2.240;2023-02-25T05:25:39;100591.41;;;8.64;77.69
77240;BME280;66258;53.170;-2.240;2023-02-25T05:28:06;100595.56;;;8.58;77.96
77240;BME280;66258;53.170;-2.240;2023-02-25T05:30:36;100590.91;;;8.51;78.33
77240;BME280;66258;53.170;-2.240;2023-02-25T05:33:05;100597.72;;;8.45;78.80
77240;BME280;66258;53.170;-2.240;2023-02-25T05:35:32;100592.47;;;8.44;78.92
77240;BME280;66258;53.170;-2.240;2023-02-25T05:38:00;100604.22;;;8.52;79.15
77240;BME280;66258;53.170;-2.240;2023-02-25T05:40:27;100609.59;;;8.62;78.95
77240;BME280;66258;53.170;-2.240;2023-02-25T05:42:54;100616.38;;;8.76;78.92
77240;BME280;66258;53.170;-2.240;2023-02-25T05:45:20;100617.84;;;8.70;79.37
77240;BME280;66258;53.170;-2.240;2023-02-25T05:47:48;100623.09;;;8.72;80.36
77240;BME280;66258;53.170;-2.240;2023-02-25T05:50:16;100620.63;;;8.78;80.90
77240;BME280;66258;53.170;-2.240;2023-02-25T05:52:43;100618.53;;;9.00;81.20
77240;BME280;66258;53.170;-2.240;2023-02-25T05:55:10;100623.06;;;9.09;80.66
77240;BME280;66258;53.170;-2.240;2023-02-25T05:57:38;100624.09;;;9.25;80.20
77240;BME280;66258;53.170;-2.240;2023-02-25T06:00:06;100632.06;;;9.27;80.69
77240;BME280;66258;53.170;-2.240;2023-02-25T06:02:32;100633.41;;;9.41;81.74
77240;BME280;66258;53.170;-2.240;2023-02-25T06:04:59;100633.19;;;9.52;81.70
77240;BME280;66258;53.170;-2.240;2023-02-25T06:07:29;100639.22;;;9.63;81.64
77240;BME280;66258;53.170;-2.240;2023-02-25T06:09:57;100632.53;;;9.85;80.82
77240;BME280;66258;53.170;-2.240;2023-02-25T06:12:23;100627.09;;;10.03;80.15
77240;BME280;66258;53.170;-2.240;2023-02-25T06:14:50;100629.56;;;10.14;80.20
77240;BME280;66258;53.170;-2.240;2023-02-25T06:17:17;100639.31;;;10.25;79.92
77240;BME280;66258;53.170;-2.240;2023-02-25T06:19:44;100637.84;;;10.30;79.38
77240;BME280;66258;53.170;-2.240;2023-02-25T06:22:11;100638.25;;;10.36;78.52
77240;BME280;66258;53.170;-2.240;2023-02-25T06:24:39;100634.69;;;10.35;77.95
77240;BME280;66258;53.170;-2.240;2023-02-25T06:27:06;100644.28;;;10.29;77.41
77240;BME280;66258;53.170;-2.240;2023-02-25T06:29:33;100638.78;;;10.21;77.10
77240;BME280;66258;53.170;-2.240;2023-02-25T06:32:00;100642.97;;;10.16;76.15
77240;BME280;66258;53.170;-2.240;2023-02-25T06:34:30;100642.72;;;10.09;75.92
77240;BME280;66258;53.170;-2.240;2023-02-25T06:36:57;100652.00;;;10.07;75.23
77240;BME280;66258;53.170;-2.240;2023-02-25T06:39:25;100650.69;;;9.93;75.41
77240;BME280;66258;53.170;-2.240;2023-02-25T06:41:53;100652.91;;;9.80;74.50
77240;BME280;66258;53.170;-2.240;2023-02-25T06:44:20;100658.16;;;9.63;74.53
77240;BME280;66258;53.170;-2.240;2023-02-25T06:46:49;100653.59;;;9.64;74.47
77240;BME280;66258;53.170;-2.240;2023-02-25T06:49:16;100664.38;;;9.46;74.88
77240;BME280;66258;53.170;-2.240;2023-02-25T06:51:43;100658.88;;;9.38;74.45
77240;BME280;66258;53.170;-2.240;2023-02-25T06:54:10;100664.63;;;9.25;74.35
77240;BME280;66258;53.170;-2.240;2023-02-25T06:56:36;100673.31;;;9.19;74.80
77240;BME280;66258;53.170;-2.240;2023-02-25T06:59:05;100673.81;;;9.05;75.01
77240;BME280;66258;53.170;-2.240;2023-02-25T07:01:32;100682.13;;;9.21;73.96
77240;BME280;66258;53.170;-2.240;2023-02-25T07:03:59;100676.69;;;9.31;73.74
77240;BME280;66258;53.170;-2.240;2023-02-25T07:06:26;100681.63;;;9.36;74.67
77240;BME280;66258;53.170;-2.240;2023-02-25T07:08:53;100681.09;;;9.32;75.96
77240;BME280;66258;53.170;-2.240;2023-02-25T07:11:28;100688.06;;;9.35;77.50
77240;BME280;66258;53.170;-2.240;2023-02-25T07:13:56;100696.66;;;9.48;78.49
77240;BME280;66258;53.170;-2.240;2023-02-25T07:16:25;100686.47;;;9.59;78.97
77240;BME280;66258;53.170;-2.240;2023-02-25T07:18:52;100684.44;;;9.71;79.30
77240;BME280;66258;53.170;-2.240;2023-02-25T07:21:19;100683.50;;;9.80;80.11
77240;BME280;66258;53.170;-2.240;2023-02-25T07:23:46;100687.41;;;9.95;79.55
77240;BME280;66258;53.170;-2.240;2023-02-25T07:26:14;100686.22;;;9.98;79.08
77240;BME280;66258;53.170;-2.240;2023-02-25T07:28:41;100689.16;;;10.05;79.28
77240;BME280;66258;53.170;-2.240;2023-02-25T07:31:10;100696.38;;;9.96;80.26
77240;BME280;66258;53.170;-2.240;2023-02-25T07:33:39;100705.78;;;10.10;80.14
77240;BME280;66258;53.170;-2.240;2023-02-25T07:36:06;100703.97;;;10.28;78.37
77240;BME280;66258;53.170;-2.240;2023-02-25T07:38:33;100709.44;;;10.18;78.32
77240;BME280;66258;53.170;-2.240;2023-02-25T07:41:03;100717.56;;;10.18;78.55
77240;BME280;66258;53.170;-2.240;2023-02-25T07:43:30;100712.22;;;10.26;78.57
77240;BME280;66258;53.170;-2.240;2023-02-25T07:45:57;100713.94;;;10.27;79.44
77240;BME280;66258;53.170;-2.240;2023-02-25T07:48:24;100705.09;;;10.43;78.88
77240;BME280;66258;53.170;-2.240;2023-02-25T07:50:52;100706.50;;;10.47;78.90
77240;BME280;66258;53.170;-2.240;2023-02-25T07:53:19;100720.38;;;10.70;78.46
77240;BME280;66258;53.170;-2.240;2023-02-25T07:55:47;100720.31;;;10.80;78.23
77240;BME280;66258;53.170;-2.240;2023-02-25T07:58:14;100717.09;;;10.84;77.93
77240;BME280;66258;53.170;-2.240;2023-02-25T08:00:41;100726.53;;;10.98;76.95
77240;BME280;66258;53.170;-2.240;2023-02-25T08:03:08;100725.53;;;11.07;76.46
77240;BME280;66258;53.170;-2.240;2023-02-25T08:05:35;100732.50;;;11.10;75.79
77240;BME280;66258;53.170;-2.240;2023-02-25T08:08:04;100739.88;;;11.25;75.17
77240;BME280;66258;53.170;-2.240;2023-02-25T08:10:31;100739.94;;;11.33;74.40
77240;BME280;66258;53.170;-2.240;2023-02-25T08:12:58;100744.72;;;11.40;73.44
77240;BME280;66258;53.170;-2.240;2023-02-25T08:15:25;100748.84;;;11.52;73.27
77240;BME280;66258;53.170;-2.240;2023-02-25T08:17:52;100751.06;;;11.64;72.99
77240;BME280;66258;53.170;-2.240;2023-02-25T08:20:19;100753.22;;;11.79;72.05
77240;BME280;66258;53.170;-2.240;2023-02-25T08:22:46;100748.50;;;11.81;71.41
77240;BME280;66258;53.170;-2.240;2023-02-25T08:25:14;100753.75;;;11.90;70.56
77240;BME280;66258;53.170;-2.240;2023-02-25T08:27:41;100758.22;;;11.99;70.79
77240;BME280;66258;53.170;-2.240;2023-02-25T08:30:09;100760.75;;;12.09;69.80
77240;BME280;66258;53.170;-2.240;2023-02-25T08:32:37;100763.84;;;12.14;69.45
77240;BME280;66258;53.170;-2.240;2023-02-25T08:35:04;100768.75;;;12.11;68.78
77240;BME280;66258;53.170;-2.240;2023-02-25T08:37:32;100764.66;;;12.07;67.97
77240;BME280;66258;53.170;-2.240;2023-02-25T08:39:59;100763.16;;;12.04;67.75
77240;BME280;66258;53.170;-2.240;2023-02-25T08:42:27;100762.78;;;12.07;68.48
77240;BME280;66258;53.170;-2.240;2023-02-25T08:44:54;100761.34;;;12.37;68.73
77240;BME280;66258;53.170;-2.240;2023-02-25T08:47:20;100781.38;;;12.36;67.71
77240;BME280;66258;53.170;-2.240;2023-02-25T08:49:48;100772.38;;;12.44;67.46
77240;BME280;66258;53.170;-2.240;2023-02-25T08:52:15;100772.91;;;12.55;67.67
77240;BME280;66258;53.170;-2.240;2023-02-25T08:54:42;100770.88;;;12.65;66.74
77240;BME280;66258;53.170;-2.240;2023-02-25T08:57:09;100757.28;;;12.73;66.23
77240;BME280;66258;53.170;-2.240;2023-02-25T08:59:37;100768.50;;;12.79;65.64
77240;BME280;66258;53.170;-2.240;2023-02-25T09:02:06;100768.00;;;12.83;65.50
77240;BME280;66258;53.170;-2.240;2023-02-25T09:04:35;100776.13;;;12.91;64.75
77240;BME280;66258;53.170;-2.240;2023-02-25T09:07:02;100772.38;;;12.92;64.89
77240;BME280;66258;53.170;-2.240;2023-02-25T09:09:29;100783.94;;;12.94;63.87
77240;BME280;66258;53.170;-2.240;2023-02-25T09:11:56;100781.91;;;12.88;63.83
77240;BME280;66258;53.170;-2.240;2023-02-25T09:14:23;100780.72;;;12.83;63.51
77240;BME280;66258;53.170;-2.240;2023-02-25T09:16:51;100778.34;;;12.71;63.43
77240;BME280;66258;53.170;-2.240;2023-02-25T09:19:18;100787.19;;;12.82;63.76
77240;BME280;66258;53.170;-2.240;2023-02-25T09:21:46;100790.06;;;12.96;64.14
77240;BME280;66258;53.170;-2.240;2023-02-25T09:24:13;100791.22;;;13.10;63.77
77240;BME280;66258;53.170;-2.240;2023-02-25T09:26:40;100795.50;;;13.21;63.26
77240;BME280;66258;53.170;-2.240;2023-02-25T09:29:07;100786.00;;;13.25;62.38
77240;BME280;66258;53.170;-2.240;2023-02-25T09:31:35;100783.94;;;13.19;62.41
77240;BME280;66258;53.170;-2.240;2023-02-25T09:34:06;100789.91;;;13.06;62.15
77240;BME280;66258;53.170;-2.240;2023-02-25T09:36:34;100802.13;;;13.18;61.44
77240;BME280;66258;53.170;-2.240;2023-02-25T09:39:01;100796.19;;;13.23;61.08
77240;BME280;66258;53.170;-2.240;2023-02-25T09:41:32;100798.91;;;13.23;61.08
77240;BME280;66258;53.170;-2.240;2023-02-25T09:44:03;100795.84;;;13.26;60.93
77240;BME280;66258;53.170;-2.240;2023-02-25T09:46:32;100799.22;;;13.12;60.74
77240;BME280;66258;53.170;-2.240;2023-02-25T09:49:04;100798.91;;;13.23;60.69
77240;BME280;66258;53.170;-2.240;2023-02-25T09:51:36;100792.41;;;13.32;60.13
77240;BME280;66258;53.170;-2.240;2023-02-25T09:54:13;100799.22;;;13.36;60.49
77240;BME280;66258;53.170;-2.240;2023-02-25T09:56:42;100803.25;;;13.56;60.66
77240;BME280;66258;53.170;-2.240;2023-02-25T09:59:13;100807.41;;;13.83;60.95
77240;BME280;66258;53.170;-2.240;2023-02-25T10:01:43;100809.69;;;14.10;61.04
77240;BME280;66258;53.170;-2.240;2023-02-25T10:04:22;100815.53;;;14.30;60.07
77240;BME280;66258;53.170;-2.240;2023-02-25T10:06:50;100807.00;;;14.33;57.93
77240;BME280;66258;53.170;-2.240;2023-02-25T10:09:25;100812.31;;;14.27;58.15
77240;BME280;66258;53.170;-2.240;2023-02-25T10:11:59;100818.97;;;14.24;56.90
77240;BME280;66258;53.170;-2.240;2023-02-25T10:14:52;100816.66;;;14.36;57.83
77240;BME280;66258;53.170;-2.240;2023-02-25T10:17:27;100823.84;;;14.91;57.46
77240;BME280;66258;53.170;-2.240;2023-02-25T10:20:19;100819.34;;;15.35;57.25
77240;BME280;66258;53.170;-2.240;2023-02-25T10:22:54;100816.19;;;15.61;54.42
77240;BME280;66258;53.170;-2.240;2023-02-25T10:25:27;100815.59;;;15.51;52.43
77240;BME280;66258;53.170;-2.240;2023-02-25T10:27:59;100818.28;;;15.22;52.99
77240;BME280;66258;53.170;-2.240;2023-02-25T10:30:30;100810.38;;;14.89;53.83
77240;BME280;66258;53.170;-2.240;2023-02-25T10:33:03;100814.91;;;14.97;53.27
77240;BME280;66258;53.170;-2.240;2023-02-25T10:35:37;100811.59;;;14.87;54.09
77240;BME280;66258;53.170;-2.240;2023-02-25T10:38:05;100817.91;;;14.87;53.68
77240;BME280;66258;53.170;-2.240;2023-02-25T10:40:32;100821.53;;;14.79;53.63
77240;BME280;66258;53.170;-2.240;2023-02-25T10:43:00;100824.47;;;14.47;54.54
77240;BME280;66258;53.170;-2.240;2023-02-25T10:45:30;100826.63;;;14.83;54.31
77240;BME280;66258;53.170;-2.240;2023-02-25T10:48:03;100833.19;;;14.96;53.88
77240;BME280;66258;53.170;-2.240;2023-02-25T10:50:31;100834.25;;;14.87;54.03
77240;BME280;66258;53.170;-2.240;2023-02-25T10:53:15;100836.44;;;14.92;53.56
77240;BME280;66258;53.170;-2.240;2023-02-25T10:55:47;100826.63;;;14.83;53.97
77240;BME280;66258;53.170;-2.240;2023-02-25T10:58:30;100827.09;;;14.86;54.29
77240;BME280;66258;53.170;-2.240;2023-02-25T11:01:00;100831.56;;;14.79;54.61
77240;BME280;66258;53.170;-2.240;2023-02-25T11:03:30;100824.03;;;14.89;55.84
77240;BME280;66258;53.170;-2.240;2023-02-25T11:06:11;100829.03;;;15.00;54.24
77240;BME280;66258;53.170;-2.240;2023-02-25T11:08:40;100834.97;;;15.04;53.44
77240;BME280;66258;53.170;-2.240;2023-02-25T11:11:14;100829.03;;;15.00;53.76
77240;BME280;66258;53.170;-2.240;2023-02-25T11:13:42;100825.22;;;15.09;52.78
77240;BME280;66258;53.170;-2.240;2023-02-25T11:16:11;100825.41;;;15.23;53.53
77240;BME280;66258;53.170;-2.240;2023-02-25T11:18:40;100834.34;;;15.54;53.71
77240;BME280;66258;53.170;-2.240;2023-02-25T11:21:09;100832.78;;;15.74;52.55
77240;BME280;66258;53.170;-2.240;2023-02-25T11:23:44;100839.56;;;15.93;52.36
77240;BME280;66258;53.170;-2.240;2023-02-25T11:26:15;100845.09;;;16.14;51.38
77240;BME280;66258;53.170;-2.240;2023-02-25T11:28:45;100841.41;;;16.07;50.22
77240;BME280;66258;53.170;-2.240;2023-02-25T11:31:16;100835.47;;;16.04;50.43
77240;BME280;66258;53.170;-2.240;2023-02-25T11:33:49;100847.25;;;16.04;50.44
77240;BME280;66258;53.170;-2.240;2023-02-25T11:36:20;100842.28;;;15.78;49.14
77240;BME280;66258;53.170;-2.240;2023-02-25T11:39:03;100842.56;;;15.31;49.91
77240;BME280;66258;53.170;-2.240;2023-02-25T11:41:31;100838.31;;;15.14;50.54
77240;BME280;66258;53.170;-2.240;2023-02-25T11:44:11;100832.50;;;14.71;51.66
77240;BME280;66258;53.170;-2.240;2023-02-25T11:46:43;100827.97;;;14.56;53.09
77240;BME280;66258;53.170;-2.240;2023-02-25T11:49:19;100827.44;;;14.60;53.42
77240;BME280;66258;53.170;-2.240;2023-02-25T11:51:51;100833.22;;;14.88;52.70
77240;BME280;66258;53.170;-2.240;2023-02-25T11:54:27;100829.81;;;14.86;53.16
77240;BME280;66258;53.170;-2.240;2023-02-25T11:57:02;100826.44;;;14.84;52.71
77240;BME280;66258;53.170;-2.240;2023-02-25T11:59:35;100829.03;;;14.77;52.62
77240;BME280;66258;53.170;-2.240;2023-02-25T12:02:19;100830.97;;;14.69;52.45
77240;BME280;66258;53.170;-2.240;2023-02-25T12:08:35;100825.44;;;15.00;50.87
77240;BME280;66258;53.170;-2.240;2023-02-25T12:11:48;100828.91;;;15.17;50.42
77240;BME280;66258;53.170;-2.240;2023-02-25T12:21:09;100816.50;;;14.46;50.63
77240;BME280;66258;53.170;-2.240;2023-02-25T12:27:14;100818.38;;;14.68;50.38
77240;BME280;66258;53.170;-2.240;2023-02-25T12:30:02;100814.69;;;14.84;50.33
77240;BME280;66258;53.170;-2.240;2023-02-25T12:32:48;100815.06;;;15.18;49.36
77240;BME280;66258;53.170;-2.240;2023-02-25T12:35:37;100823.38;;;15.77;48.56
77240;BME280;66258;53.170;-2.240;2023-02-25T12:41:23;100822.28;;;16.22;46.60
77240;BME280;66258;53.170;-2.240;2023-02-25T12:44:13;100814.13;;;16.43;46.03
77240;BME280;66258;53.170;-2.240;2023-02-25T12:46:58;100814.69;;;16.18;45.99
77240;BME280;66258;53.170;-2.240;2023-02-25T12:49:44;100803.03;;;15.65;46.15
77240;BME280;66258;53.170;-2.240;2023-02-25T12:52:21;100815.94;;;15.56;46.47
77240;BME280;66258;53.170;-2.240;2023-02-25T12:55:28;100820.25;;;15.95;46.05
77240;BME280;66258;53.170;-2.240;2023-02-25T12:58:16;100828.16;;;15.90;43.99
77240;BME280;66258;53.170;-2.240;2023-02-25T13:01:16;100819.78;;;16.99;43.36
77240;BME280;66258;53.170;-2.240;2023-02-25T13:04:05;100823.16;;;17.23;41.28
77240;BME280;66258;53.170;-2.240;2023-02-25T13:06:54;100820.59;;;17.42;40.00
77240;BME280;66258;53.170;-2.240;2023-02-25T13:09:44;100813.38;;;17.13;39.73
77240;BME280;66258;53.170;-2.240;2023-02-25T13:12:27;100815.63;;;16.82;40.51
77240;BME280;66258;53.170;-2.240;2023-02-25T13:15:04;100829.03;;;17.20;40.41
77240;BME280;66258;53.170;-2.240;2023-02-25T13:20:46;100832.53;;;17.13;39.92
77240;BME280;66258;53.170;-2.240;2023-02-25T13:23:40;100821.41;;;16.36;41.06